createdAt,value
2023-03-02T00:00:10.854Z,4.14
2023-03-02T00:02:51.155Z,4.09
2023-03-02T00:05:26.834Z,3.97
2023-03-02T00:08:03.160Z,4.02
2023-03-02T00:10:39.353Z,3.85
2023-03-02T00:13:15.031Z,3.87
2023-03-02T00:15:49.296Z,3.92
2023-03-02T00:18:23.827Z,4.00
2023-03-02T00:20:59.482Z,3.99
2023-03-02T00:23:34.052Z,3.94
2023-03-02T00:26:08.565Z,3.85
2023-03-02T00:28:43.613Z,3.86
2023-03-02T00:31:19.160Z,3.87
2023-03-02T00:33:55.049Z,3.93
2023-03-02T00:36:30.672Z,3.95
2023-03-02T00:39:05.701Z,3.87
2023-03-02T00:41:44.324Z,3.73
2023-03-02T00:44:19.602Z,3.77
2023-03-02T00:46:53.962Z,3.74
2023-03-02T00:49:28.710Z,3.67
2023-03-02T00:52:04.448Z,3.62
2023-03-02T00:54:38.931Z,3.68
2023-03-02T00:57:13.412Z,3.65
2023-03-02T00:59:48.485Z,3.58
2023-03-02T01:02:23.629Z,3.43
2023-03-02T01:04:58.613Z,3.56
2023-03-02T01:07:34.932Z,3.44
2023-03-02T01:10:11.442Z,3.49
2023-03-02T01:12:48.728Z,3.39
2023-03-02T01:15:23.252Z,3.27
2023-03-02T01:17:57.661Z,3.35
2023-03-02T01:20:33.676Z,3.38
2023-03-02T01:23:09.474Z,3.31
2023-03-02T01:25:44.177Z,3.15
2023-03-02T01:28:18.515Z,3.15
2023-03-02T01:30:54.482Z,3.32
2023-03-02T01:33:28.626Z,3.36
2023-03-02T01:36:03.482Z,3.36
2023-03-02T01:38:39.150Z,3.27
2023-03-02T01:41:14.025Z,3.20
2023-03-02T01:43:48.384Z,3.15
2023-03-02T01:46:24.901Z,3.22
2023-03-02T01:49:01.950Z,3.11
2023-03-02T01:51:44.846Z,3.18
2023-03-02T01:54:24.026Z,3.17
2023-03-02T01:57:01.245Z,3.21
2023-03-02T01:59:38.858Z,3.18
2023-03-02T02:02:13.799Z,3.26
2023-03-02T02:04:50.308Z,3.33
2023-03-02T02:07:24.483Z,3.40
2023-03-02T02:10:01.744Z,3.37
2023-03-02T02:12:36.620Z,3.40
2023-03-02T02:15:11.994Z,3.45
2023-03-02T02:17:46.336Z,3.48
2023-03-02T02:20:29.043Z,3.50
2023-03-02T02:23:14.138Z,3.49
2023-03-02T02:26:18.559Z,3.53
2023-03-02T02:28:58.221Z,3.50
2023-03-02T02:31:39.346Z,3.53
2023-03-02T02:34:22.739Z,3.50
2023-03-02T02:37:02.078Z,3.50
2023-03-02T02:39:40.400Z,3.50
2023-03-02T02:42:20.480Z,3.45
2023-03-02T02:44:58.826Z,3.41
2023-03-02T02:47:34.946Z,3.35
2023-03-02T02:50:19.828Z,3.37
2023-03-02T02:52:58.904Z,3.38
2023-03-02T02:55:35.129Z,3.25
2023-03-02T02:58:24.020Z,3.23
2023-03-02T03:00:59.211Z,3.13
2023-03-02T03:03:36.242Z,3.16
2023-03-02T03:06:18.677Z,3.18
2023-03-02T03:08:57.104Z,3.11
2023-03-02T03:11:33.440Z,3.13
2023-03-02T03:14:11.628Z,3.17
2023-03-02T03:16:47.905Z,3.17
2023-03-02T03:19:24.339Z,3.01
2023-03-02T03:22:01.387Z,2.74
2023-03-02T03:24:37.205Z,2.77
2023-03-02T03:27:14.276Z,2.68
2023-03-02T03:29:50.638Z,2.74
2023-03-02T03:32:25.479Z,2.73
2023-03-02T03:35:00.387Z,2.75
2023-03-02T03:37:35.864Z,2.76
2023-03-02T03:40:12.562Z,2.83
2023-03-02T03:42:48.175Z,2.83
2023-03-02T03:45:24.367Z,2.81
2023-03-02T03:47:59.027Z,2.98
2023-03-02T03:50:33.944Z,2.86
2023-03-02T03:53:08.678Z,2.84
2023-03-02T03:55:43.205Z,2.89
2023-03-02T03:58:17.717Z,2.83
2023-03-02T04:00:54.537Z,2.82
2023-03-02T04:03:29.346Z,2.85
2023-03-02T04:06:08.226Z,2.94
2023-03-02T04:08:42.780Z,3.04
2023-03-02T04:11:17.296Z,2.99
2023-03-02T04:13:51.962Z,2.95
2023-03-02T04:16:28.045Z,2.99
2023-03-02T04:19:02.925Z,2.92
2023-03-02T04:21:38.293Z,2.79
2023-03-02T04:24:13.904Z,2.68
2023-03-02T04:26:49.681Z,2.29
2023-03-02T04:29:24.562Z,1.99
2023-03-02T04:32:00.550Z,2.10
2023-03-02T04:34:35.853Z,1.74
2023-03-02T04:37:10.144Z,1.33
2023-03-02T04:39:47.555Z,1.29
2023-03-02T04:42:22.357Z,1.47
2023-03-02T04:44:56.899Z,1.52
2023-03-02T04:47:32.484Z,1.89
2023-03-02T04:50:09.536Z,2.03
2023-03-02T04:52:43.759Z,1.98
2023-03-02T04:55:21.330Z,2.09
2023-03-02T04:57:55.719Z,2.19
2023-03-02T05:00:34.098Z,2.37
2023-03-02T05:03:09.898Z,2.33
2023-03-02T05:05:44.430Z,2.39
2023-03-02T05:08:18.642Z,2.20
2023-03-02T05:10:53.573Z,2.07
2023-03-02T05:13:28.576Z,1.66
2023-03-02T05:16:03.309Z,1.75
2023-03-02T05:18:39.263Z,1.75
2023-03-02T05:21:15.546Z,1.51
2023-03-02T05:23:50.204Z,1.79
2023-03-02T05:26:25.055Z,3.61
2023-03-02T05:28:59.601Z,7.39
2023-03-02T05:31:36.811Z,4.97
2023-03-02T05:34:14.656Z,3.40
2023-03-02T05:36:57.246Z,2.74
2023-03-02T05:39:31.486Z,2.13
2023-03-02T05:42:06.451Z,2.28
2023-03-02T05:44:40.699Z,1.59
2023-03-02T05:47:15.325Z,1.58
2023-03-02T05:49:51.164Z,1.45
2023-03-02T05:52:25.709Z,1.59
2023-03-02T05:54:59.950Z,1.73
2023-03-02T05:57:34.911Z,1.56
2023-03-02T06:00:11.813Z,1.48
2023-03-02T06:02:49.629Z,7.02
2023-03-02T06:05:25.853Z,5.65
2023-03-02T06:08:00.275Z,4.24
2023-03-02T06:10:36.666Z,3.34
2023-03-02T06:13:12.045Z,3.09
2023-03-02T06:15:46.591Z,7.73
2023-03-02T06:18:20.905Z,7.16
2023-03-02T06:20:56.881Z,5.30
2023-03-02T06:23:32.167Z,4.36
2023-03-02T06:26:09.843Z,3.75
2023-03-02T06:28:52.580Z,3.11
2023-03-02T06:34:05.125Z,2.86
2023-03-02T06:36:41.073Z,4.83
2023-03-02T06:39:16.876Z,8.00
2023-03-02T06:41:51.649Z,6.25
2023-03-02T06:44:25.898Z,5.21
2023-03-02T06:47:00.384Z,4.65
2023-03-02T06:49:34.907Z,4.55
2023-03-02T06:52:11.138Z,4.24
2023-03-02T06:54:45.445Z,4.10
2023-03-02T06:57:19.939Z,3.52
2023-03-02T06:59:54.624Z,3.40
2023-03-02T07:02:56.565Z,3.60
2023-03-02T07:05:32.347Z,3.60
2023-03-02T07:08:06.938Z,3.29
2023-03-02T07:10:41.684Z,3.36
2023-03-02T07:13:16.007Z,3.17
2023-03-02T07:15:50.613Z,3.36
2023-03-02T07:18:26.512Z,3.69
2023-03-02T07:21:01.764Z,3.75
2023-03-02T07:23:37.325Z,3.89
2023-03-02T07:26:11.897Z,4.10
2023-03-02T07:28:46.130Z,4.30
2023-03-02T07:31:20.843Z,4.35
2023-03-02T07:33:56.543Z,4.54
2023-03-02T07:36:31.248Z,4.64
2023-03-02T07:39:05.765Z,4.67
2023-03-02T07:41:40.416Z,4.81
2023-03-02T07:44:14.859Z,4.89
2023-03-02T07:46:49.521Z,4.99
2023-03-02T07:49:25.227Z,4.95
2023-03-02T07:51:59.980Z,4.96
2023-03-02T07:54:34.256Z,5.12
2023-03-02T07:57:08.811Z,5.28
2023-03-02T12:57:21.360Z,12.21
2023-03-02T13:00:03.428Z,12.21
2023-03-02T13:02:38.869Z,11.80
2023-03-02T13:05:19.991Z,11.74
2023-03-02T13:07:59.844Z,11.72
2023-03-02T13:10:37.405Z,11.75
2023-03-02T13:13:19.342Z,11.58
2023-03-02T13:15:56.068Z,11.24
2023-03-02T13:18:32.547Z,11.29
2023-03-02T13:21:07.527Z,11.30
2023-03-02T13:23:47.348Z,11.36
2023-03-02T13:26:27.099Z,11.27
2023-03-02T13:29:08.770Z,11.09
2023-03-02T13:31:44.137Z,11.67
2023-03-02T13:34:23.671Z,12.10
2023-03-02T13:36:58.205Z,12.04
2023-03-02T13:39:33.231Z,11.87
2023-03-02T13:42:08.971Z,11.61
2023-03-02T13:44:46.428Z,11.82
2023-03-02T13:47:24.121Z,12.04
2023-03-02T13:50:08.685Z,12.07
2023-03-02T13:52:48.614Z,12.53
2023-03-02T13:55:23.819Z,12.86
2023-03-02T13:57:59.805Z,13.08
2023-03-02T14:00:36.993Z,13.18
2023-03-02T14:03:24.447Z,13.03
2023-03-02T14:06:00.495Z,13.25
2023-03-02T14:08:35.236Z,13.31
2023-03-02T14:41:53.021Z,12.16
2023-03-02T14:44:28.963Z,12.16
2023-03-02T14:47:03.207Z,11.50
2023-03-02T14:49:38.024Z,11.46
2023-03-02T14:52:17.169Z,11.33
2023-03-02T14:54:54.753Z,11.31
2023-03-02T14:57:31.422Z,11.18
2023-03-02T15:03:01.313Z,11.22
2023-03-02T15:05:36.370Z,11.10
2023-03-02T15:08:14.457Z,10.97
2023-03-02T15:10:50.952Z,10.96
2023-03-02T15:13:25.414Z,10.80
2023-03-02T15:16:00.316Z,10.80
2023-03-02T15:18:37.076Z,10.86
2023-03-02T15:21:18.282Z,10.55
2023-03-02T15:23:52.883Z,10.47
2023-03-02T15:26:27.494Z,10.39
2023-03-02T15:29:01.842Z,10.20
2023-03-02T15:31:36.718Z,10.08
2023-03-02T15:34:13.366Z,9.98
2023-03-02T15:36:47.919Z,9.79
2023-03-02T15:39:22.270Z,11.43
2023-03-02T15:41:56.950Z,10.58
2023-03-02T15:44:31.514Z,10.41
2023-03-02T15:47:06.473Z,10.20
2023-03-02T15:49:42.667Z,10.02
2023-03-02T15:52:19.779Z,9.80
2023-03-02T15:54:54.051Z,9.57
2023-03-02T15:57:28.557Z,9.45
2023-03-02T16:00:05.181Z,9.30
2023-03-02T16:02:42.243Z,9.19
2023-03-02T16:05:18.176Z,9.23
2023-03-02T16:07:52.854Z,9.07
2023-03-02T16:10:30.245Z,9.06
2023-03-02T16:13:07.440Z,8.71
2023-03-02T16:15:42.676Z,8.67
2023-03-02T16:18:17.243Z,11.54
2023-03-02T16:20:53.055Z,12.33
2023-03-02T16:23:27.676Z,11.88
2023-03-02T16:26:08.137Z,10.94
2023-03-02T16:28:42.890Z,10.59
2023-03-02T16:31:20.199Z,10.25
2023-03-02T16:33:57.663Z,9.91
2023-03-02T16:36:33.245Z,9.56
2023-03-02T16:39:09.105Z,9.39
2023-03-02T16:41:46.390Z,9.15
2023-03-02T16:44:22.821Z,8.98
2023-03-02T16:46:57.566Z,8.93
2023-03-02T16:49:32.559Z,8.80
2023-03-02T16:52:08.657Z,8.89
2023-03-02T16:54:43.311Z,8.68
2023-03-02T16:57:17.699Z,8.68
2023-03-02T16:59:53.577Z,8.82
2023-03-02T17:02:29.343Z,8.67
2023-03-02T17:05:04.328Z,8.68
2023-03-02T17:07:40.360Z,8.55
2023-03-02T17:10:18.334Z,8.56
2023-03-02T17:12:53.446Z,8.50
2023-03-02T17:15:28.485Z,8.18
2023-03-02T17:18:02.973Z,8.22
2023-03-02T17:20:38.734Z,8.25
2023-03-02T17:23:16.414Z,8.18
2023-03-02T17:25:51.071Z,8.31
2023-03-02T17:28:25.804Z,8.31
2023-03-02T17:31:02.982Z,8.34
2023-03-02T17:33:39.699Z,8.30
2023-03-02T17:36:15.433Z,8.35
2023-03-02T17:38:51.972Z,8.14
2023-03-02T17:41:26.874Z,8.13
2023-03-02T17:44:03.160Z,8.37
2023-03-02T17:46:38.061Z,10.89
2023-03-02T17:49:13.730Z,9.40
2023-03-02T17:51:48.427Z,9.23
2023-03-02T17:54:24.089Z,9.14
2023-03-02T17:56:58.662Z,8.87
2023-03-02T17:59:33.596Z,8.75
2023-03-02T18:02:08.856Z,8.53
2023-03-02T18:04:45.011Z,8.22
2023-03-02T18:07:19.308Z,8.03
2023-03-02T18:09:57.319Z,7.87
2023-03-02T18:12:32.017Z,7.82
2023-03-02T18:15:08.227Z,7.70
2023-03-02T18:17:43.034Z,7.85
2023-03-02T18:20:20.331Z,7.93
2023-03-02T18:22:54.696Z,7.87
2023-03-02T18:25:30.904Z,7.81
2023-03-02T18:28:05.720Z,7.86
2023-03-02T18:30:42.015Z,7.86
2023-03-02T18:33:16.519Z,7.81
2023-03-02T18:35:54.386Z,7.76
2023-03-02T18:38:31.110Z,7.77
2023-03-02T18:41:09.422Z,7.72
2023-03-02T18:43:44.444Z,7.66
2023-03-02T18:46:22.745Z,7.70
2023-03-02T18:49:00.615Z,7.61
2023-03-02T18:51:35.676Z,7.50
2023-03-02T18:54:10.375Z,7.39
2023-03-02T18:56:46.387Z,7.29
2023-03-02T18:59:20.619Z,7.16
2023-03-02T19:01:55.241Z,7.26
2023-03-02T19:04:30.917Z,7.24
2023-03-02T19:07:07.143Z,7.23
2023-03-02T19:09:41.717Z,7.10
2023-03-02T19:12:18.582Z,7.15
2023-03-02T19:14:53.178Z,7.11
2023-03-02T19:17:28.018Z,7.11
2023-03-02T19:20:03.303Z,6.92
2023-03-02T19:22:38.594Z,6.89
2023-03-02T19:25:13.512Z,6.84
2023-03-02T19:27:49.942Z,6.84
2023-03-02T19:30:27.209Z,6.90
2023-03-02T19:33:03.686Z,6.89
2023-03-02T19:35:39.094Z,6.71
2023-03-02T19:38:14.028Z,6.65
2023-03-02T19:40:48.933Z,6.75
2023-03-02T19:43:25.327Z,8.63
2023-03-02T19:46:00.847Z,10.97
2023-03-02T19:48:35.879Z,11.69
2023-03-02T19:51:12.204Z,10.10
2023-03-02T19:53:47.249Z,8.92
2023-03-02T19:56:22.503Z,8.71
2023-03-02T19:59:00.224Z,8.24
2023-03-02T20:01:35.076Z,8.00
2023-03-02T20:04:09.966Z,7.79
2023-03-02T20:06:44.251Z,7.53
2023-03-02T20:09:19.687Z,7.42
2023-03-02T20:11:54.245Z,7.43
2023-03-02T20:14:34.013Z,7.38
2023-03-02T20:17:08.565Z,7.32
2023-03-02T20:19:44.086Z,7.07
2023-03-02T20:22:18.604Z,6.90
2023-03-02T20:24:53.521Z,6.91
2023-03-02T20:27:28.066Z,6.94
2023-03-02T20:30:07.816Z,7.06
2023-03-02T20:32:46.221Z,6.94
2023-03-02T20:35:21.429Z,6.89
2023-03-02T20:37:58.418Z,7.01
2023-03-02T20:40:33.600Z,7.03
2023-03-02T20:43:08.136Z,7.02
2023-03-02T20:45:45.003Z,6.89
2023-03-02T20:48:21.523Z,6.98
2023-03-02T20:50:57.104Z,7.02
2023-03-02T20:53:31.726Z,6.99
2023-03-02T20:56:07.138Z,6.88
2023-03-02T20:58:43.487Z,6.74
2023-03-02T21:01:20.985Z,6.73
2023-03-02T21:03:56.093Z,6.61
2023-03-02T21:06:33.491Z,6.68
2023-03-02T21:09:10.020Z,6.64
2023-03-02T21:11:45.709Z,6.54
2023-03-02T21:14:20.468Z,6.52
2023-03-02T21:16:56.734Z,6.46
2023-03-02T21:19:32.656Z,6.47
2023-03-02T21:22:07.549Z,6.54
2023-03-02T21:24:42.110Z,6.45
2023-03-02T21:27:16.842Z,6.46
2023-03-02T21:30:01.849Z,6.56
2023-03-02T21:32:41.366Z,6.65
2023-03-02T21:35:17.853Z,9.22
2023-03-02T21:37:56.820Z,11.00
2023-03-02T21:40:37.982Z,10.76
2023-03-02T21:43:15.421Z,9.64
2023-03-02T21:45:49.940Z,8.97
2023-03-02T21:48:25.986Z,8.60
2023-03-02T21:51:00.523Z,8.28
2023-03-02T21:53:35.462Z,7.89
2023-03-02T21:56:10.185Z,7.74
2023-03-02T21:58:47.370Z,7.43
2023-03-02T22:01:22.274Z,7.40
2023-03-02T22:03:58.822Z,7.37
2023-03-02T22:06:35.198Z,7.10
2023-03-02T22:09:09.907Z,7.12
2023-03-02T22:11:52.082Z,7.03
2023-03-02T22:14:26.922Z,7.02
2023-03-02T22:17:01.265Z,7.03
2023-03-02T22:19:39.684Z,6.98
2023-03-02T22:22:19.124Z,7.05
2023-03-02T22:24:55.083Z,7.06
2023-03-02T22:27:31.407Z,7.00
2023-03-02T22:30:18.209Z,6.96
2023-03-02T22:32:56.433Z,6.98
2023-03-02T22:35:32.438Z,6.81
2023-03-02T22:38:13.425Z,6.82
2023-03-02T22:40:47.984Z,6.73
2023-03-02T22:43:26.487Z,6.63
2023-03-02T22:46:10.206Z,6.74
2023-03-02T22:48:46.120Z,6.82
2023-03-02T22:51:24.438Z,6.85
2023-03-02T22:54:00.584Z,6.92
2023-03-02T22:56:37.450Z,7.01
2023-03-02T22:59:20.938Z,7.04
2023-03-02T23:02:58.079Z,7.53
2023-03-02T23:05:36.575Z,7.53
2023-03-02T23:08:21.204Z,6.85
2023-03-02T23:10:58.789Z,6.54
2023-03-02T23:13:39.876Z,6.57
2023-03-02T23:16:19.009Z,6.67
2023-03-02T23:18:56.975Z,6.73
2023-03-02T23:21:38.782Z,6.66
2023-03-02T23:24:13.079Z,6.81
2023-03-02T23:26:47.708Z,6.90
2023-03-02T23:29:23.064Z,6.92
2023-03-02T23:31:58.214Z,6.99
2023-03-02T23:34:33.835Z,6.85
2023-03-02T23:37:08.350Z,6.94
2023-03-02T23:39:44.440Z,6.93
2023-03-02T23:42:21.350Z,6.87
2023-03-02T23:44:56.347Z,6.85
2023-03-02T23:47:30.931Z,6.88
2023-03-02T23:50:08.919Z,6.93
2023-03-02T23:52:43.548Z,6.99
2023-03-02T23:55:18.061Z,6.89
2023-03-02T23:57:52.772Z,6.91
